sensor_id;sensor_type;location;lat;lon;timestamp;temperature;humidity
74178;DHT22;62540;48.456;-4.456;2023-05-02T00:01:39;13.79;63.58
74178;DHT22;62540;48.456;-4.456;2023-05-02T00:04:05;13.77;63.73
74178;DHT22;62540;48.456;-4.456;2023-05-02T00:06:31;13.72;63.60
74178;DHT22;62540;48.456;-4.456;2023-05-02T00:08:56;13.68;63.51
74178;DHT22;62540;48.456;-4.456;2023-05-02T00:11:22;13.64;63.76
74178;DHT22;62540;48.456;-4.456;2023-05-02T00:13:48;13.58;64.27
74178;DHT22;62540;48.456;-4.456;2023-05-02T00:16:14;13.53;64.96
74178;DHT22;62540;48.456;-4.456;2023-05-02T00:18:39;13.48;65.09
74178;DHT22;62540;48.456;-4.456;2023-05-02T00:21:04;13.48;65.05
74178;DHT22;62540;48.456;-4.456;2023-05-02T00:23:30;13.46;65.40
74178;DHT22;62540;48.456;-4.456;2023-05-02T00:25:55;13.46;65.27
74178;DHT22;62540;48.456;-4.456;2023-05-02T00:28:21;13.48;64.94
74178;DHT22;62540;48.456;-4.456;2023-05-02T00:30:46;13.41;65.18
74178;DHT22;62540;48.456;-4.456;2023-05-02T00:33:12;13.37;65.59
74178;DHT22;62540;48.456;-4.456;2023-05-02T00:35:39;13.30;65.98
74178;DHT22;62540;48.456;-4.456;2023-05-02T00:38:05;13.24;66.18
74178;DHT22;62540;48.456;-4.456;2023-05-02T00:40:30;13.26;65.95
74178;DHT22;62540;48.456;-4.456;2023-05-02T00:42:56;13.24;65.78
74178;DHT22;62540;48.456;-4.456;2023-05-02T00:45:21;13.23;65.95
74178;DHT22;62540;48.456;-4.456;2023-05-02T00:47:48;13.27;65.95
74178;DHT22;62540;48.456;-4.456;2023-05-02T00:50:14;13.26;65.91
74178;DHT22;62540;48.456;-4.456;2023-05-02T00:52:40;13.23;65.95
74178;DHT22;62540;48.456;-4.456;2023-05-02T00:55:06;13.24;65.67
74178;DHT22;62540;48.456;-4.456;2023-05-02T00:57:32;13.24;65.91
74178;DHT22;62540;48.456;-4.456;2023-05-02T00:59:58;13.27;66.04
74178;DHT22;62540;48.456;-4.456;2023-05-02T01:02:37;13.24;65.69
74178;DHT22;62540;48.456;-4.456;2023-05-02T01:05:13;13.21;65.37
74178;DHT22;62540;48.456;-4.456;2023-05-02T01:10:33;13.11;65.32
74178;DHT22;62540;48.456;-4.456;2023-05-02T01:15:36;13.09;65.13
74178;DHT22;62540;48.456;-4.456;2023-05-02T01:18:04;13.03;65.16
74178;DHT22;62540;48.456;-4.456;2023-05-02T01:20:31;13.02;65.22
74178;DHT22;62540;48.456;-4.456;2023-05-02T01:23:06;12.97;65.26
74178;DHT22;62540;48.456;-4.456;2023-05-02T01:25:52;12.97;65.24
74178;DHT22;62540;48.456;-4.456;2023-05-02T01:31:15;12.95;65.31
74178;DHT22;62540;48.456;-4.456;2023-05-02T01:33:42;12.96;65.39
74178;DHT22;62540;48.456;-4.456;2023-05-02T01:36:09;12.96;65.54
74178;DHT22;62540;48.456;-4.456;2023-05-02T01:38:36;12.95;65.50
74178;DHT22;62540;48.456;-4.456;2023-05-02T01:41:03;12.93;65.31
74178;DHT22;62540;48.456;-4.456;2023-05-02T01:43:33;12.90;65.34
74178;DHT22;62540;48.456;-4.456;2023-05-02T01:46:01;12.90;65.40
74178;DHT22;62540;48.456;-4.456;2023-05-02T01:48:28;12.93;65.32
74178;DHT22;62540;48.456;-4.456;2023-05-02T01:50:56;12.93;65.19
74178;DHT22;62540;48.456;-4.456;2023-05-02T01:53:24;12.93;65.03
74178;DHT22;62540;48.456;-4.456;2023-05-02T01:55:51;12.90;64.91
74178;DHT22;62540;48.456;-4.456;2023-05-02T01:58:18;12.86;65.13
74178;DHT22;62540;48.456;-4.456;2023-05-02T02:00:45;12.86;65.04
74178;DHT22;62540;48.456;-4.456;2023-05-02T02:03:11;12.83;65.00
74178;DHT22;62540;48.456;-4.456;2023-05-02T02:05:38;12.83;64.90
74178;DHT22;62540;48.456;-4.456;2023-05-02T02:08:04;12.79;64.78
74178;DHT22;62540;48.456;-4.456;2023-05-02T02:10:35;12.78;65.01
74178;DHT22;62540;48.456;-4.456;2023-05-02T02:13:11;12.78;64.72
74178;DHT22;62540;48.456;-4.456;2023-05-02T02:15:39;12.72;64.56
74178;DHT22;62540;48.456;-4.456;2023-05-02T02:18:16;12.62;64.73
74178;DHT22;62540;48.456;-4.456;2023-05-02T02:20:44;12.65;64.93
74178;DHT22;62540;48.456;-4.456;2023-05-02T02:23:11;12.59;64.53
74178;DHT22;62540;48.456;-4.456;2023-05-02T02:25:37;12.53;64.57
74178;DHT22;62540;48.456;-4.456;2023-05-02T02:28:03;12.55;64.68
74178;DHT22;62540;48.456;-4.456;2023-05-02T02:30:29;12.53;64.85
74178;DHT22;62540;48.456;-4.456;2023-05-02T02:32:54;12.49;65.09
74178;DHT22;62540;48.456;-4.456;2023-05-02T02:35:19;12.49;64.99
74178;DHT22;62540;48.456;-4.456;2023-05-02T02:41:19;12.45;65.12
74178;DHT22;62540;48.456;-4.456;2023-05-02T02:43:25;12.45;65.36
74178;DHT22;62540;48.456;-4.456;2023-05-02T02:46:13;12.48;65.53
74178;DHT22;62540;48.456;-4.456;2023-05-02T02:48:55;12.45;65.46
74178;DHT22;62540;48.456;-4.456;2023-05-02T02:51:29;12.40;65.08
74178;DHT22;62540;48.456;-4.456;2023-05-02T02:59:41;12.30;65.51
74178;DHT22;62540;48.456;-4.456;2023-05-02T03:02:12;12.27;65.48
74178;DHT22;62540;48.456;-4.456;2023-05-02T03:04:43;12.25;65.41
74178;DHT22;62540;48.456;-4.456;2023-05-02T03:07:09;12.27;65.51
74178;DHT22;62540;48.456;-4.456;2023-05-02T03:09:42;12.28;65.30
74178;DHT22;62540;48.456;-4.456;2023-05-02T03:12:08;12.25;65.35
74178;DHT22;62540;48.456;-4.456;2023-05-02T03:14:35;12.25;65.58
74178;DHT22;62540;48.456;-4.456;2023-05-02T03:17:01;12.27;65.79
74178;DHT22;62540;48.456;-4.456;2023-05-02T03:19:26;12.27;65.58
74178;DHT22;62540;48.456;-4.456;2023-05-02T03:21:52;12.25;65.34
74178;DHT22;62540;48.456;-4.456;2023-05-02T03:24:17;12.20;65.53
74178;DHT22;62540;48.456;-4.456;2023-05-02T03:26:42;12.20;65.93
74178;DHT22;62540;48.456;-4.456;2023-05-02T03:29:08;12.21;65.89
74178;DHT22;62540;48.456;-4.456;2023-05-02T03:31:33;12.20;66.10
74178;DHT22;62540;48.456;-4.456;2023-05-02T03:33:59;12.18;65.80
74178;DHT22;62540;48.456;-4.456;2023-05-02T03:36:25;12.11;65.53
74178;DHT22;62540;48.456;-4.456;2023-05-02T03:38:50;12.07;65.69
74178;DHT22;62540;48.456;-4.456;2023-05-02T03:41:16;12.04;65.70
74178;DHT22;62540;48.456;-4.456;2023-05-02T03:43:41;12.01;65.85
74178;DHT22;62540;48.456;-4.456;2023-05-02T03:46:08;11.98;65.90
74178;DHT22;62540;48.456;-4.456;2023-05-02T03:48:35;11.95;65.89
74178;DHT22;62540;48.456;-4.456;2023-05-02T03:51:02;11.98;65.83
74178;DHT22;62540;48.456;-4.456;2023-05-02T03:53:28;11.97;65.90
74178;DHT22;62540;48.456;-4.456;2023-05-02T03:55:54;11.97;65.66
74178;DHT22;62540;48.456;-4.456;2023-05-02T03:58:20;11.95;65.76
74178;DHT22;62540;48.456;-4.456;2023-05-02T04:00:46;11.95;65.80
74178;DHT22;62540;48.456;-4.456;2023-05-02T04:03:11;11.97;65.85
74178;DHT22;62540;48.456;-4.456;2023-05-02T04:05:37;11.97;65.87
74178;DHT22;62540;48.456;-4.456;2023-05-02T04:08:02;11.94;66.07
74178;DHT22;62540;48.456;-4.456;2023-05-02T04:10:27;11.94;66.41
74178;DHT22;62540;48.456;-4.456;2023-05-02T04:12:53;11.94;66.04
74178;DHT22;62540;48.456;-4.456;2023-05-02T04:15:18;11.90;66.00
74178;DHT22;62540;48.456;-4.456;2023-05-02T04:17:44;11.87;66.43
74178;DHT22;62540;48.456;-4.456;2023-05-02T04:20:10;11.83;65.98
74178;DHT22;62540;48.456;-4.456;2023-05-02T04:22:36;11.82;65.96
74178;DHT22;62540;48.456;-4.456;2023-05-02T04:25:04;11.79;66.03
74178;DHT22;62540;48.456;-4.456;2023-05-02T04:27:30;11.77;66.02
74178;DHT22;62540;48.456;-4.456;2023-05-02T04:29:55;11.80;65.73
74178;DHT22;62540;48.456;-4.456;2023-05-02T04:32:21;11.77;65.76
74178;DHT22;62540;48.456;-4.456;2023-05-02T04:34:46;11.77;65.86
74178;DHT22;62540;48.456;-4.456;2023-05-02T04:37:12;11.74;65.89
74178;DHT22;62540;48.456;-4.456;2023-05-02T04:39:37;11.73;66.33
74178;DHT22;62540;48.456;-4.456;2023-05-02T04:42:03;11.73;66.39
74178;DHT22;62540;48.456;-4.456;2023-05-02T04:44:28;11.77;66.31
74178;DHT22;62540;48.456;-4.456;2023-05-02T04:46:53;11.74;66.44
74178;DHT22;62540;48.456;-4.456;2023-05-02T04:49:19;11.74;66.45
74178;DHT22;62540;48.456;-4.456;2023-05-02T04:51:47;11.72;66.60
74178;DHT22;62540;48.456;-4.456;2023-05-02T04:54:12;11.76;66.53
74178;DHT22;62540;48.456;-4.456;2023-05-02T04:56:38;11.77;66.43
74178;DHT22;62540;48.456;-4.456;2023-05-02T04:59:04;11.77;66.44
74178;DHT22;62540;48.456;-4.456;2023-05-02T05:01:30;11.76;66.57
74178;DHT22;62540;48.456;-4.456;2023-05-02T05:03:55;11.77;66.29
74178;DHT22;62540;48.456;-4.456;2023-05-02T05:06:21;11.77;66.26
74178;DHT22;62540;48.456;-4.456;2023-05-02T05:08:47;11.76;66.43
74178;DHT22;62540;48.456;-4.456;2023-05-02T05:11:13;11.79;66.61
74178;DHT22;62540;48.456;-4.456;2023-05-02T05:13:40;11.84;66.51
74178;DHT22;62540;48.456;-4.456;2023-05-02T05:16:06;11.89;66.83
74178;DHT22;62540;48.456;-4.456;2023-05-02T05:18:31;11.91;67.23
74178;DHT22;62540;48.456;-4.456;2023-05-02T05:21:07;11.97;67.26
74178;DHT22;62540;48.456;-4.456;2023-05-02T05:23:34;12.03;67.01
74178;DHT22;62540;48.456;-4.456;2023-05-02T05:26:15;12.05;67.01
74178;DHT22;62540;48.456;-4.456;2023-05-02T05:28:41;12.13;67.18
74178;DHT22;62540;48.456;-4.456;2023-05-02T05:31:09;12.21;67.35
74178;DHT22;62540;48.456;-4.456;2023-05-02T05:33:35;12.27;67.51
74178;DHT22;62540;48.456;-4.456;2023-05-02T05:36:07;12.41;67.57
74178;DHT22;62540;48.456;-4.456;2023-05-02T05:38:33;12.63;67.72
74178;DHT22;62540;48.456;-4.456;2023-05-02T05:40:59;12.90;67.67
74178;DHT22;62540;48.456;-4.456;2023-05-02T05:43:26;13.19;67.45
74178;DHT22;62540;48.456;-4.456;2023-05-02T05:45:52;13.53;67.43
74178;DHT22;62540;48.456;-4.456;2023-05-02T05:48:17;13.94;66.98
74178;DHT22;62540;48.456;-4.456;2023-05-02T05:50:43;14.34;66.45
74178;DHT22;62540;48.456;-4.456;2023-05-02T05:53:08;14.78;65.79
74178;DHT22;62540;48.456;-4.456;2023-05-02T05:55:34;15.21;64.90
74178;DHT22;62540;48.456;-4.456;2023-05-02T05:57:59;15.60;64.33
74178;DHT22;62540;48.456;-4.456;2023-05-02T06:00:25;15.97;63.73
74178;DHT22;62540;48.456;-4.456;2023-05-02T06:02:50;16.33;63.20
74178;DHT22;62540;48.456;-4.456;2023-05-02T06:05:16;16.65;62.55
74178;DHT22;62540;48.456;-4.456;2023-05-02T06:07:41;17.00;61.84
74178;DHT22;62540;48.456;-4.456;2023-05-02T06:10:07;17.38;61.20
74178;DHT22;62540;48.456;-4.456;2023-05-02T06:12:34;17.74;60.24
74178;DHT22;62540;48.456;-4.456;2023-05-02T06:14:59;18.09;59.65
74178;DHT22;62540;48.456;-4.456;2023-05-02T06:17:25;18.51;58.49
74178;DHT22;62540;48.456;-4.456;2023-05-02T06:19:50;18.88;57.98
74178;DHT22;62540;48.456;-4.456;2023-05-02T06:22:16;19.29;56.67
74178;DHT22;62540;48.456;-4.456;2023-05-02T06:24:41;19.63;55.69
74178;DHT22;62540;48.456;-4.456;2023-05-02T06:27:07;19.98;56.01
74178;DHT22;62540;48.456;-4.456;2023-05-02T06:29:32;20.31;54.68
74178;DHT22;62540;48.456;-4.456;2023-05-02T06:31:57;20.72;54.00
74178;DHT22;62540;48.456;-4.456;2023-05-02T06:34:23;20.99;52.46
74178;DHT22;62540;48.456;-4.456;2023-05-02T06:36:53;21.04;52.49
74178;DHT22;62540;48.456;-4.456;2023-05-02T06:39:18;21.04;51.71
74178;DHT22;62540;48.456;-4.456;2023-05-02T06:41:43;21.12;52.07
74178;DHT22;62540;48.456;-4.456;2023-05-02T06:44:09;21.28;51.08
74178;DHT22;62540;48.456;-4.456;2023-05-02T06:46:34;21.41;51.37
74178;DHT22;62540;48.456;-4.456;2023-05-02T06:48:59;21.59;50.34
74178;DHT22;62540;48.456;-4.456;2023-05-02T06:51:25;21.71;50.29
74178;DHT22;62540;48.456;-4.456;2023-05-02T06:53:51;21.88;50.18
74178;DHT22;62540;48.456;-4.456;2023-05-02T06:56:17;22.07;49.42
74178;DHT22;62540;48.456;-4.456;2023-05-02T06:58:42;22.39;49.07
74178;DHT22;62540;48.456;-4.456;2023-05-02T07:01:08;22.72;49.13
74178;DHT22;62540;48.456;-4.456;2023-05-02T07:03:33;23.06;47.37
74178;DHT22;62540;48.456;-4.456;2023-05-02T07:05:59;23.39;47.99
74178;DHT22;62540;48.456;-4.456;2023-05-02T07:08:24;23.66;47.27
74178;DHT22;62540;48.456;-4.456;2023-05-02T07:10:50;23.97;47.09
74178;DHT22;62540;48.456;-4.456;2023-05-02T07:13:15;24.10;46.01
74178;DHT22;62540;48.456;-4.456;2023-05-02T07:15:41;24.18;45.18
74178;DHT22;62540;48.456;-4.456;2023-05-02T07:18:07;24.24;45.17
74178;DHT22;62540;48.456;-4.456;2023-05-02T07:20:32;24.39;45.03
74178;DHT22;62540;48.456;-4.456;2023-05-02T07:22:58;24.65;42.96
74178;DHT22;62540;48.456;-4.456;2023-05-02T07:25:23;24.86;44.36
74178;DHT22;62540;48.456;-4.456;2023-05-02T07:27:48;25.20;44.21
74178;DHT22;62540;48.456;-4.456;2023-05-02T07:30:14;25.47;43.28
74178;DHT22;62540;48.456;-4.456;2023-05-02T07:32:39;25.51;42.70
74178;DHT22;62540;48.456;-4.456;2023-05-02T07:35:05;25.47;41.81
74178;DHT22;62540;48.456;-4.456;2023-05-02T07:37:33;25.34;42.61
74178;DHT22;62540;48.456;-4.456;2023-05-02T07:39:59;25.58;42.68
74178;DHT22;62540;48.456;-4.456;2023-05-02T07:42:31;25.81;41.68
74178;DHT22;62540;48.456;-4.456;2023-05-02T07:44:57;25.83;42.23
74178;DHT22;62540;48.456;-4.456;2023-05-02T07:47:22;25.92;40.64
74178;DHT22;62540;48.456;-4.456;2023-05-02T07:49:52;26.00;41.80
74178;DHT22;62540;48.456;-4.456;2023-05-02T07:52:18;26.24;40.39
74178;DHT22;62540;48.456;-4.456;2023-05-02T07:54:44;26.37;41.40
74178;DHT22;62540;48.456;-4.456;2023-05-02T07:57:11;26.53;40.18
74178;DHT22;62540;48.456;-4.456;2023-05-02T07:59:37;26.68;39.89
74178;DHT22;62540;48.456;-4.456;2023-05-02T08:02:02;26.70;39.39
74178;DHT22;62540;48.456;-4.456;2023-05-02T08:04:28;26.75;39.54
74178;DHT22;62540;48.456;-4.456;2023-05-02T08:06:53;26.74;38.83
74178;DHT22;62540;48.456;-4.456;2023-05-02T08:09:19;26.91;39.11
74178;DHT22;62540;48.456;-4.456;2023-05-02T08:11:44;27.26;39.30
74178;DHT22;62540;48.456;-4.456;2023-05-02T08:14:10;27.30;38.07
74178;DHT22;62540;48.456;-4.456;2023-05-02T08:16:35;27.03;37.53
74178;DHT22;62540;48.456;-4.456;2023-05-02T08:19:01;26.82;37.68
74178;DHT22;62540;48.456;-4.456;2023-05-02T08:21:26;26.60;37.75
74178;DHT22;62540;48.456;-4.456;2023-05-02T08:23:56;26.61;38.62
74178;DHT22;62540;48.456;-4.456;2023-05-02T08:26:22;26.80;38.49
74178;DHT22;62540;48.456;-4.456;2023-05-02T08:28:50;27.08;36.39
74178;DHT22;62540;48.456;-4.456;2023-05-02T08:31:15;27.19;38.01
74178;DHT22;62540;48.456;-4.456;2023-05-02T08:33:41;27.22;37.41
74178;DHT22;62540;48.456;-4.456;2023-05-02T08:36:14;27.16;37.31
74178;DHT22;62540;48.456;-4.456;2023-05-02T08:38:44;27.25;37.41
74178;DHT22;62540;48.456;-4.456;2023-05-02T08:41:17;27.22;36.18
74178;DHT22;62540;48.456;-4.456;2023-05-02T08:43:44;27.32;36.26
74178;DHT22;62540;48.456;-4.456;2023-05-02T08:46:11;27.43;37.57
74178;DHT22;62540;48.456;-4.456;2023-05-02T08:48:38;27.66;37.38
74178;DHT22;62540;48.456;-4.456;2023-05-02T08:51:07;27.73;36.50
74178;DHT22;62540;48.456;-4.456;2023-05-02T08:53:34;27.87;37.33
74178;DHT22;62540;48.456;-4.456;2023-05-02T08:56:00;28.18;36.99
74178;DHT22;62540;48.456;-4.456;2023-05-02T08:58:26;28.42;35.35
74178;DHT22;62540;48.456;-4.456;2023-05-02T09:00:54;28.55;35.95
74178;DHT22;62540;48.456;-4.456;2023-05-02T09:03:34;28.83;36.52
74178;DHT22;62540;48.456;-4.456;2023-05-02T09:08:30;29.31;34.18
74178;DHT22;62540;48.456;-4.456;2023-05-02T09:10:56;29.23;34.92
74178;DHT22;62540;48.456;-4.456;2023-05-02T09:18:35;29.42;34.28
74178;DHT22;62540;48.456;-4.456;2023-05-02T09:21:11;29.52;34.76
74178;DHT22;62540;48.456;-4.456;2023-05-02T09:23:41;29.71;33.02
74178;DHT22;62540;48.456;-4.456;2023-05-02T09:28:44;29.96;33.06
74178;DHT22;62540;48.456;-4.456;2023-05-02T09:31:27;29.72;32.94
74178;DHT22;62540;48.456;-4.456;2023-05-02T09:33:55;29.37;32.31
74178;DHT22;62540;48.456;-4.456;2023-05-02T09:36:21;29.48;32.73
74178;DHT22;62540;48.456;-4.456;2023-05-02T09:38:48;29.50;32.20
74178;DHT22;62540;48.456;-4.456;2023-05-02T09:41:14;29.48;30.75
74178;DHT22;62540;48.456;-4.456;2023-05-02T09:43:42;29.38;32.20
74178;DHT22;62540;48.456;-4.456;2023-05-02T09:46:08;29.02;30.62
74178;DHT22;62540;48.456;-4.456;2023-05-02T09:48:53;29.24;33.15
74178;DHT22;62540;48.456;-4.456;2023-05-02T09:51:20;29.62;32.29
74178;DHT22;62540;48.456;-4.456;2023-05-02T09:53:46;29.62;31.34
74178;DHT22;62540;48.456;-4.456;2023-05-02T09:56:14;29.54;33.01
74178;DHT22;62540;48.456;-4.456;2023-05-02T09:58:40;29.47;32.05
74178;DHT22;62540;48.456;-4.456;2023-05-02T10:01:06;29.73;31.50
74178;DHT22;62540;48.456;-4.456;2023-05-02T10:03:35;29.79;32.67
74178;DHT22;62540;48.456;-4.456;2023-05-02T10:06:01;29.83;33.03
74178;DHT22;62540;48.456;-4.456;2023-05-02T10:08:27;29.92;30.88
74178;DHT22;62540;48.456;-4.456;2023-05-02T10:10:57;30.06;32.32
74178;DHT22;62540;48.456;-4.456;2023-05-02T10:13:25;30.05;32.19
74178;DHT22;62540;48.456;-4.456;2023-05-02T10:16:04;30.16;33.03
74178;DHT22;62540;48.456;-4.456;2023-05-02T10:21:10;30.82;30.23
74178;DHT22;62540;48.456;-4.456;2023-05-02T10:23:40;30.88;32.35
74178;DHT22;62540;48.456;-4.456;2023-05-02T10:26:07;31.08;31.69
74178;DHT22;62540;48.456;-4.456;2023-05-02T10:28:33;31.11;31.19
74178;DHT22;62540;48.456;-4.456;2023-05-02T10:30:59;31.32;31.84
74178;DHT22;62540;48.456;-4.456;2023-05-02T10:33:27;31.25;29.64
74178;DHT22;62540;48.456;-4.456;2023-05-02T10:35:55;31.39;30.11
74178;DHT22;62540;48.456;-4.456;2023-05-02T10:38:21;31.53;31.50
74178;DHT22;62540;48.456;-4.456;2023-05-02T10:40:57;31.56;29.62
74178;DHT22;62540;48.456;-4.456;2023-05-02T10:43:27;31.59;30.30
74178;DHT22;62540;48.456;-4.456;2023-05-02T10:45:53;31.76;30.93
74178;DHT22;62540;48.456;-4.456;2023-05-02T10:48:23;31.91;30.73
74178;DHT22;62540;48.456;-4.456;2023-05-02T10:50:54;32.05;28.10
74178;DHT22;62540;48.456;-4.456;2023-05-02T10:53:24;31.62;26.57
74178;DHT22;62540;48.456;-4.456;2023-05-02T10:56:17;30.87;28.85
74178;DHT22;62540;48.456;-4.456;2023-05-02T10:58:49;30.67;29.06
74178;DHT22;62540;48.456;-4.456;2023-05-02T11:03:57;30.20;29.00
74178;DHT22;62540;48.456;-4.456;2023-05-02T11:06:24;29.85;29.83
74178;DHT22;62540;48.456;-4.456;2023-05-02T11:08:50;30.10;31.19
74178;DHT22;62540;48.456;-4.456;2023-05-02T11:11:41;30.40;29.76
74178;DHT22;62540;48.456;-4.456;2023-05-02T11:14:08;30.63;27.35
74178;DHT22;62540;48.456;-4.456;2023-05-02T11:24:44;30.89;29.25
74178;DHT22;62540;48.456;-4.456;2023-05-02T11:30:07;30.85;30.13
74178;DHT22;62540;48.456;-4.456;2023-05-02T11:35:23;31.16;30.17
74178;DHT22;62540;48.456;-4.456;2023-05-02T11:38:02;31.22;29.47
74178;DHT22;62540;48.456;-4.456;2023-05-02T11:40:28;31.18;30.24
74178;DHT22;62540;48.456;-4.456;2023-05-02T11:42:55;31.42;30.39
74178;DHT22;62540;48.456;-4.456;2023-05-02T11:45:21;31.43;28.32
74178;DHT22;62540;48.456;-4.456;2023-05-02T11:47:56;31.36;29.14
74178;DHT22;62540;48.456;-4.456;2023-05-02T11:50:22;31.35;29.52
74178;DHT22;62540;48.456;-4.456;2023-05-02T11:52:48;31.51;30.64
74178;DHT22;62540;48.456;-4.456;2023-05-02T11:55:14;31.77;30.06
74178;DHT22;62540;48.456;-4.456;2023-05-02T11:57:40;31.83;30.02
74178;DHT22;62540;48.456;-4.456;2023-05-02T12:00:06;31.94;28.96
74178;DHT22;62540;48.456;-4.456;2023-05-02T12:05:02;31.37;27.20
74178;DHT22;62540;48.456;-4.456;2023-05-02T12:07:48;31.03;28.00
74178;DHT22;62540;48.456;-4.456;2023-05-02T12:10:13;31.12;27.96
74178;DHT22;62540;48.456;-4.456;2023-05-02T12:12:42;31.22;28.81
74178;DHT22;62540;48.456;-4.456;2023-05-02T12:15:09;31.39;29.12
74178;DHT22;62540;48.456;-4.456;2023-05-02T12:17:44;31.65;29.53
74178;DHT22;62540;48.456;-4.456;2023-05-02T12:20:10;31.69;27.61
74178;DHT22;62540;48.456;-4.456;2023-05-02T12:22:36;31.50;27.98
74178;DHT22;62540;48.456;-4.456;2023-05-02T12:25:04;31.45;27.51
74178;DHT22;62540;48.456;-4.456;2023-05-02T12:27:30;31.46;28.18
74178;DHT22;62540;48.456;-4.456;2023-05-02T12:29:57;31.39;28.09
74178;DHT22;62540;48.456;-4.456;2023-05-02T12:32:30;31.39;28.16
74178;DHT22;62540;48.456;-4.456;2023-05-02T12:34:57;31.46;28.39
74178;DHT22;62540;48.456;-4.456;2023-05-02T12:37:24;31.39;27.69
74178;DHT22;62540;48.456;-4.456;2023-05-02T12:39:50;31.26;28.68
74178;DHT22;62540;48.456;-4.456;2023-05-02T12:42:18;31.05;28.09
74178;DHT22;62540;48.456;-4.456;2023-05-02T12:44:46;30.20;28.59
74178;DHT22;62540;48.456;-4.456;2023-05-02T12:47:13;29.95;29.58
74178;DHT22;62540;48.456;-4.456;2023-05-02T12:49:51;29.89;30.11
74178;DHT22;62540;48.456;-4.456;2023-05-02T12:53:03;29.90;30.35
74178;DHT22;62540;48.456;-4.456;2023-05-02T12:55:20;29.85;30.29
74178;DHT22;62540;48.456;-4.456;2023-05-02T12:57:47;29.78;30.63
74178;DHT22;62540;48.456;-4.456;2023-05-02T13:00:15;30.03;32.24
74178;DHT22;62540;48.456;-4.456;2023-05-02T13:02:41;30.23;31.08
74178;DHT22;62540;48.456;-4.456;2023-05-02T13:05:13;30.20;29.93
74178;DHT22;62540;48.456;-4.456;2023-05-02T13:07:42;30.09;30.56
74178;DHT22;62540;48.456;-4.456;2023-05-02T13:10:08;30.03;30.51
74178;DHT22;62540;48.456;-4.456;2023-05-02T13:12:33;29.98;30.09
74178;DHT22;62540;48.456;-4.456;2023-05-02T13:15:05;29.89;30.08
74178;DHT22;62540;48.456;-4.456;2023-05-02T13:17:34;29.96;30.79
74178;DHT22;62540;48.456;-4.456;2023-05-02T13:20:00;29.98;30.59
74178;DHT22;62540;48.456;-4.456;2023-05-02T13:22:26;30.17;31.48
74178;DHT22;62540;48.456;-4.456;2023-05-02T13:24:52;30.29;30.73
74178;DHT22;62540;48.456;-4.456;2023-05-02T13:27:17;30.45;31.68
74178;DHT22;62540;48.456;-4.456;2023-05-02T13:29:44;30.70;31.86
74178;DHT22;62540;48.456;-4.456;2023-05-02T13:32:09;30.74;30.79
74178;DHT22;62540;48.456;-4.456;2023-05-02T13:34:35;30.71;31.96
74178;DHT22;62540;48.456;-4.456;2023-05-02T13:37:00;30.65;29.97
74178;DHT22;62540;48.456;-4.456;2023-05-02T13:39:26;30.57;30.61
74178;DHT22;62540;48.456;-4.456;2023-05-02T13:41:51;30.72;30.95
74178;DHT22;62540;48.456;-4.456;2023-05-02T13:44:16;30.74;30.77
74178;DHT22;62540;48.456;-4.456;2023-05-02T13:46:44;30.70;31.09
74178;DHT22;62540;48.456;-4.456;2023-05-02T13:49:10;30.79;31.08
74178;DHT22;62540;48.456;-4.456;2023-05-02T13:51:35;30.84;31.50
74178;DHT22;62540;48.456;-4.456;2023-05-02T13:54:00;30.88;30.85
74178;DHT22;62540;48.456;-4.456;2023-05-02T13:56:26;30.77;30.85
74178;DHT22;62540;48.456;-4.456;2023-05-02T13:58:52;30.79;31.05
74178;DHT22;62540;48.456;-4.456;2023-05-02T14:01:17;30.64;30.20
74178;DHT22;62540;48.456;-4.456;2023-05-02T14:03:43;30.31;29.44
74178;DHT22;62540;48.456;-4.456;2023-05-02T14:06:08;30.08;30.71
74178;DHT22;62540;48.456;-4.456;2023-05-02T14:08:34;30.10;30.81
74178;DHT22;62540;48.456;-4.456;2023-05-02T14:10:59;30.09;30.77
74178;DHT22;62540;48.456;-4.456;2023-05-02T14:13:25;30.02;32.35
74178;DHT22;62540;48.456;-4.456;2023-05-02T14:15:54;30.03;32.74
74178;DHT22;62540;48.456;-4.456;2023-05-02T14:18:20;30.13;32.34
74178;DHT22;62540;48.456;-4.456;2023-05-02T14:20:45;30.16;31.88
74178;DHT22;62540;48.456;-4.456;2023-05-02T14:23:11;30.33;32.64
74178;DHT22;62540;48.456;-4.456;2023-05-02T14:25:37;30.40;31.87
74178;DHT22;62540;48.456;-4.456;2023-05-02T14:28:03;30.26;31.60
74178;DHT22;62540;48.456;-4.456;2023-05-02T14:30:29;30.24;31.61
74178;DHT22;62540;48.456;-4.456;2023-05-02T14:32:55;30.31;31.85
74178;DHT22;62540;48.456;-4.456;2023-05-02T14:35:21;30.33;33.73
74178;DHT22;62540;48.456;-4.456;2023-05-02T14:37:46;30.30;33.88
74178;DHT22;62540;48.456;-4.456;2023-05-02T14:40:12;30.14;34.65
74178;DHT22;62540;48.456;-4.456;2023-05-02T14:42:41;29.95;35.26
74178;DHT22;62540;48.456;-4.456;2023-05-02T14:45:07;29.73;36.32
74178;DHT22;62540;48.456;-4.456;2023-05-02T14:47:33;29.45;37.01
74178;DHT22;62540;48.456;-4.456;2023-05-02T14:49:59;29.21;36.46
74178;DHT22;62540;48.456;-4.456;2023-05-02T14:52:25;28.84;37.03
74178;DHT22;62540;48.456;-4.456;2023-05-02T14:54:51;28.59;38.58
74178;DHT22;62540;48.456;-4.456;2023-05-02T14:57:17;28.41;39.05
74178;DHT22;62540;48.456;-4.456;2023-05-02T14:59:42;28.22;39.47
74178;DHT22;62540;48.456;-4.456;2023-05-02T15:02:08;28.05;39.59
74178;DHT22;62540;48.456;-4.456;2023-05-02T15:04:33;27.91;39.64
74178;DHT22;62540;48.456;-4.456;2023-05-02T15:06:59;27.78;40.78
74178;DHT22;62540;48.456;-4.456;2023-05-02T15:09:25;27.56;41.21
74178;DHT22;62540;48.456;-4.456;2023-05-02T15:11:51;27.29;40.60
74178;DHT22;62540;48.456;-4.456;2023-05-02T15:14:17;27.11;40.27
74178;DHT22;62540;48.456;-4.456;2023-05-02T15:16:42;26.82;41.56
74178;DHT22;62540;48.456;-4.456;2023-05-02T15:19:08;26.62;41.19
74178;DHT22;62540;48.456;-4.456;2023-05-02T15:21:33;26.47;42.21
74178;DHT22;62540;48.456;-4.456;2023-05-02T15:23:59;26.30;43.19
74178;DHT22;62540;48.456;-4.456;2023-05-02T15:26:25;26.19;42.34
74178;DHT22;62540;48.456;-4.456;2023-05-02T15:28:51;26.09;42.84
74178;DHT22;62540;48.456;-4.456;2023-05-02T15:31:17;25.96;42.14
74178;DHT22;62540;48.456;-4.456;2023-05-02T15:33:42;25.58;43.35
74178;DHT22;62540;48.456;-4.456;2023-05-02T15:36:08;25.34;44.18
74178;DHT22;62540;48.456;-4.456;2023-05-02T15:38:33;25.26;43.94
74178;DHT22;62540;48.456;-4.456;2023-05-02T15:41:04;25.16;45.29
74178;DHT22;62540;48.456;-4.456;2023-05-02T15:43:29;25.23;44.66
74178;DHT22;62540;48.456;-4.456;2023-05-02T15:45:57;25.26;45.37
74178;DHT22;62540;48.456;-4.456;2023-05-02T15:48:26;25.33;45.19
74178;DHT22;62540;48.456;-4.456;2023-05-02T15:50:52;25.47;44.20
74178;DHT22;62540;48.456;-4.456;2023-05-02T15:53:17;25.39;44.85
74178;DHT22;62540;48.456;-4.456;2023-05-02T15:55:43;25.26;45.64
74178;DHT22;62540;48.456;-4.456;2023-05-02T15:58:10;25.24;46.06
74178;DHT22;62540;48.456;-4.456;2023-05-02T16:00:35;25.26;45.05
74178;DHT22;62540;48.456;-4.456;2023-05-02T16:03:01;25.11;44.80
74178;DHT22;62540;48.456;-4.456;2023-05-02T16:05:27;24.94;45.52